Time;durP1;ratioP1;P1;durP2;ratioP2;P2;SDS_P1;SDS_P2;PMS_P1;PMS_P2;Temp;Humidity;BMP_temperature;BMP_pressure;BME280_temperature;BME280_humidity;BME280_pressure;Samples;Min_cycle;Max_cycle;Signal;HPM_P1;HPM_P2
2023/03/07 00:00:39;;;;;;;20.55;8.60;;;;;;;11.83;100.00;99484.00;4948471;28;20147;-79
2023/03/07 00:03:05;;;;;;;47.10;22.85;;;;;;;10.98;100.00;99482.47;4949054;28;20059;-79
2023/03/07 00:05:32;;;;;;;23.45;11.23;;;;;;;12.02;100.00;99483.13;4947883;28;20058;-76
2023/03/07 00:07:59;;;;;;;39.97;17.77;;;;;;;11.02;100.00;99485.16;4948177;28;20057;-78
2023/03/07 00:10:25;;;;;;;42.53;22.95;;;;;;;10.75;100.00;99487.31;4948108;28;20473;-79
2023/03/07 00:12:52;;;;;;;37.28;17.38;;;;;;;11.08;100.00;99486.19;4947117;28;20047;-78
2023/03/07 00:15:18;;;;;;;47.65;24.30;;;;;;;10.71;100.00;99484.66;4946778;28;20083;-77
2023/03/07 00:17:44;;;;;;;42.38;19.27;;;;;;;10.95;100.00;99482.53;4949148;28;20063;-79
2023/03/07 00:20:13;;;;;;;36.58;15.95;;;;;;;11.43;100.00;99466.78;4949724;28;20047;-78
2023/03/07 00:22:41;;;;;;;38.50;18.45;;;;;;;11.29;100.00;99478.19;4949475;28;20073;-78
2023/03/07 00:25:08;;;;;;;31.08;15.05;;;;;;;11.60;100.00;99471.09;4949990;28;20055;-79
2023/03/07 00:27:35;;;;;;;24.17;11.32;;;;;;;12.49;100.00;99484.19;4948470;28;20070;-80
2023/03/07 00:30:04;;;;;;;43.35;20.55;;;;;;;11.98;100.00;99474.88;4949036;28;20054;-76
2023/03/07 00:32:54;;;;;;;49.70;27.80;;;;;;;11.48;100.00;99480.09;4948942;28;20051;-74
2023/03/07 00:35:20;;;;;;;32.65;15.18;;;;;;;12.30;100.00;99480.34;4931660;28;20078;-77
2023/03/07 00:37:47;;;;;;;44.05;26.42;;;;;;;11.02;100.00;99482.38;4948459;28;20059;-78
2023/03/07 00:40:14;;;;;;;36.60;17.52;;;;;;;11.80;100.00;99465.47;4942504;28;20047;-82
2023/03/07 00:42:40;;;;;;;39.28;20.08;;;;;;;12.08;100.00;99457.19;4947795;28;20055;-76
2023/03/07 00:45:07;;;;;;;38.75;19.50;;;;;;;12.00;100.00;99482.75;4948438;28;20059;-79
2023/03/07 00:47:34;;;;;;;29.50;16.33;;;;;;;11.55;100.00;99479.94;4948464;28;20138;-79
2023/03/07 00:50:00;;;;;;;38.17;19.55;;;;;;;11.68;100.00;99466.19;4948520;28;20055;-74
2023/03/07 00:52:27;;;;;;;26.45;13.40;;;;;;;12.65;100.00;99470.22;4950073;28;20466;-77
2023/03/07 00:54:53;;;;;;;36.40;16.65;;;;;;;11.95;100.00;99475.75;4947776;28;20051;-80
2023/03/07 00:57:20;;;;;;;20.23;9.60;;;;;;;12.01;100.00;99462.13;4948905;28;20071;-76
2023/03/07 00:59:46;;;;;;;24.48;11.60;;;;;;;11.97;100.00;99483.63;4948638;28;20075;-77
2023/03/07 01:02:13;;;;;;;26.13;11.40;;;;;;;11.86;100.00;99472.03;4948421;28;20058;-78
2023/03/07 01:04:39;;;;;;;30.65;15.45;;;;;;;20.04;100.00;99472.19;4947089;28;20059;-77
2023/03/07 01:07:06;;;;;;;84.82;35.45;;;;;;;16.74;nan;99486.72;4946648;28;20058;-79
2023/03/07 01:09:32;;;;;;;35.38;17.10;;;;;;;10.09;nan;99441.25;4947321;28;20059;-78
2023/03/07 01:11:59;;;;;;;27.27;12.90;;;;;;;10.45;nan;99444.88;4946333;28;20055;-79
2023/03/07 01:14:25;;;;;;;21.05;10.20;;;;;;;10.63;nan;99441.72;4946500;28;20055;-78
2023/03/07 01:16:52;;;;;;;16.13;6.13;;;;;;;20.67;nan;99464.75;4947498;28;20091;-74
2023/03/07 01:19:18;;;;;;;29.00;11.95;;;;;;;17.75;nan;99455.13;4947806;28;20058;-79
2023/03/07 01:21:45;;;;;;;20.52;8.80;;;;;;;15.22;nan;99449.78;4947931;28;20059;-78
2023/03/07 01:24:13;;;;;;;22.25;9.63;;;;;;;13.06;nan;99436.13;4950733;28;20055;-80
2023/03/07 01:26:41;;;;;;;24.55;11.10;;;;;;;12.29;nan;99439.94;4946001;28;20069;-79
2023/03/07 01:29:07;;;;;;;18.73;7.88;;;;;;;13.38;nan;99433.09;4946641;28;20472;-77
2023/03/07 01:31:34;;;;;;;27.20;13.10;;;;;;;12.77;nan;99431.41;4946416;28;20058;-77
2023/03/07 01:34:02;;;;;;;29.65;14.98;;;;;;;12.32;nan;99433.53;4946415;28;20081;-77
2023/03/07 01:36:32;;;;;;;28.80;16.70;;;;;;;12.49;nan;99437.03;4929647;28;20059;-79
2023/03/07 01:39:13;;;;;;;18.00;6.53;;;;;;;13.82;nan;99421.66;4947149;28;20051;-78
2023/03/07 01:41:40;;;;;;;31.20;14.55;;;;;;;13.25;nan;99424.78;4945373;28;20050;-78
2023/03/07 01:44:18;;;;;;;30.52;13.77;;;;;;;12.98;nan;99416.09;4947527;28;20054;-77
2023/03/07 01:46:47;;;;;;;27.92;12.52;;;;;;;13.29;nan;99425.44;4946360;28;20059;-78
2023/03/07 01:49:35;;;;;;;16.80;8.07;;;;;;;17.48;nan;99425.31;4948261;28;20509;-81
2023/03/07 01:52:07;;;;;;;19.17;7.22;;;;;;;14.44;nan;99411.47;4953217;28;20120;-78
2023/03/07 01:54:47;;;;;;;17.67;8.40;;;;;;;14.21;nan;99415.47;4948791;28;20054;-80
2023/03/07 01:57:17;;;;;;;36.63;16.92;;;;;;;13.07;nan;99407.13;4946202;28;20061;-78
2023/03/07 01:59:46;;;;;;;19.13;7.95;;;;;;;14.67;nan;99400.66;4950315;28;20098;-79
2023/03/07 02:02:17;;;;;;;27.95;13.45;;;;;;;13.75;nan;99404.44;4950608;28;20062;-77
2023/03/07 02:04:50;;;;;;;44.70;19.17;;;;;;;14.92;nan;99394.88;4950357;28;20063;-80
2023/03/07 02:07:20;;;;;;;31.70;14.18;;;;;;;13.97;nan;99394.91;4948649;28;20090;-77
2023/03/07 02:09:49;;;;;;;32.20;16.23;;;;;;;12.29;nan;99380.94;4948538;28;20130;-80
2023/03/07 02:12:16;;;;;;;18.85;8.30;;;;;;;13.23;nan;99384.78;4954392;28;20095;-77
2023/03/07 02:14:45;;;;;;;32.45;14.60;;;;;;;12.42;nan;99376.97;4954350;28;20058;-77
2023/03/07 02:17:12;;;;;;;23.30;10.25;;;;;;;12.52;nan;99375.13;4954131;28;20047;-77
2023/03/07 02:20:06;;;;;;;25.85;10.02;;;;;;;13.25;nan;99372.00;4953691;28;20063;-81
2023/03/07 02:22:32;;;;;;;26.58;12.00;;;;;;;14.04;nan;99377.94;4949156;28;20102;-77
2023/03/07 02:25:25;;;;;;;28.60;13.63;;;;;;;13.74;nan;99375.84;4953033;28;20063;-77
2023/03/07 02:27:54;;;;;;;14.00;5.85;;;;;;;14.33;nan;99370.16;4934271;28;20066;-77
2023/03/07 02:30:21;;;;;;;25.25;9.82;;;;;;;13.61;nan;99361.25;4953653;28;20062;-77
2023/03/07 02:32:47;;;;;;;26.02;9.60;;;;;;;14.25;nan;99365.31;4953048;28;20059;-80
2023/03/07 02:35:21;;;;;;;21.17;9.80;;;;;;;13.54;nan;99358.72;4952321;28;20510;-78
2023/03/07 02:37:52;;;;;;;21.67;8.85;;;;;;;13.78;nan;99367.41;4953091;28;20055;-77
2023/03/07 02:40:22;;;;;;;12.68;4.20;;;;;;;15.44;nan;99361.34;4956736;28;20051;-77
2023/03/07 02:42:53;;;;;;;16.88;5.45;;;;;;;14.60;nan;99356.41;4955546;28;20643;-74
2023/03/07 02:45:20;;;;;;;22.83;9.98;;;;;;;13.65;nan;99361.91;4951533;28;20073;-79
2023/03/07 02:47:46;;;;;;;16.95;7.55;;;;;;;13.77;nan;99351.97;4960262;28;20065;-78
2023/03/07 02:50:14;;;;;;;10.82;4.72;;;;;;;14.93;nan;99359.47;4953102;28;20112;-79
2023/03/07 02:52:41;;;;;;;15.18;6.70;;;;;;;14.22;nan;99350.31;4962367;28;20560;-77
2023/03/07 02:55:08;;;;;;;9.77;4.05;;;;;;;14.77;nan;99351.34;4952134;28;20063;-79
2023/03/07 02:57:35;;;;;;;22.02;9.52;;;;;;;14.46;nan;99345.81;4960366;28;20419;-78
2023/03/07 03:00:06;;;;;;;9.35;4.47;;;;;;;15.68;nan;99358.72;4959325;28;20058;-76
2023/03/07 03:02:33;;;;;;;18.60;7.35;;;;;;;15.57;nan;99346.47;4959206;28;20055;-78
2023/03/07 03:04:59;;;;;;;16.42;6.32;;;;;;;14.64;nan;99345.09;4963017;28;20055;-77
2023/03/07 03:07:26;;;;;;;21.52;8.23;;;;;;;14.59;nan;99343.72;4959472;28;20069;-80
2023/03/07 03:09:52;;;;;;;19.02;7.10;;;;;;;16.07;nan;99346.63;4966327;28;20066;-77
2023/03/07 03:12:19;;;;;;;8.00;4.20;;;;;;;14.96;nan;99339.81;4958534;28;20063;-78
2023/03/07 03:14:45;;;;;;;18.40;7.72;;;;;;;15.01;nan;99333.66;4956120;28;20117;-77
2023/03/07 03:17:12;;;;;;;18.33;5.35;;;;;;;15.65;nan;99342.16;4958026;28;20133;-81
2023/03/07 03:19:39;;;;;;;16.63;6.72;;;;;;;15.92;nan;99339.34;4951684;28;20062;-75
2023/03/07 03:22:06;;;;;;;20.65;8.05;;;;;;;14.05;nan;99337.03;4953389;28;20067;-79
2023/03/07 03:24:37;;;;;;;22.75;9.40;;;;;;;14.47;nan;99335.44;4960594;28;20105;-77
2023/03/07 03:27:03;;;;;;;8.57;3.67;;;;;;;14.83;nan;99338.38;4957573;28;20073;-75
2023/03/07 03:29:30;;;;;;;20.75;7.22;;;;;;;15.02;nan;99340.75;4962413;28;20047;-76
2023/03/07 03:31:57;;;;;;;20.35;8.00;;;;;;;15.21;nan;99330.44;4958925;28;20051;-78
2023/03/07 03:34:23;;;;;;;18.80;8.25;;;;;;;14.30;nan;99345.25;4960250;28;20050;-79
2023/03/07 03:36:51;;;;;;;16.65;6.32;;;;;;;14.45;nan;99324.00;4957717;28;20517;-77
2023/03/07 03:39:18;;;;;;;24.48;12.38;;;;;;;13.84;nan;99330.22;4959096;28;20148;-77
2023/03/07 03:41:44;;;;;;;18.92;8.07;;;;;;;13.91;nan;99327.19;4960952;28;20185;-77
2023/03/07 03:44:11;;;;;;;19.42;7.60;;;;;;;14.58;nan;99333.03;4957443;28;20508;-78
2023/03/07 03:46:37;;;;;;;22.35;9.43;;;;;;;14.81;nan;99333.28;4957822;28;20116;-77
2023/03/07 03:49:04;;;;;;;8.82;5.00;;;;;;;15.24;nan;99332.31;4957846;28;20055;-77
2023/03/07 03:51:31;;;;;;;18.67;7.65;;;;;;;13.57;nan;99327.22;4958336;28;20133;-76
2023/03/07 03:53:57;;;;;;;20.33;8.07;;;;;;;13.38;nan;99324.75;4952915;28;20055;-79
2023/03/07 03:56:25;;;;;;;13.13;4.68;;;;;;;14.22;nan;99332.81;4950801;28;20117;-77
2023/03/07 03:58:54;;;;;;;4.78;2.42;;;;;;;15.34;nan;99331.88;4955626;28;20074;-76
2023/03/07 04:01:24;;;;;;;12.40;4.93;;;;;;;14.58;nan;99331.00;4955973;28;20054;-76
2023/03/07 04:03:52;;;;;;;15.75;7.10;;;;;;;13.55;nan;99335.25;4955341;28;20055;-78
2023/03/07 04:06:24;;;;;;;14.57;5.70;;;;;;;13.57;nan;99335.56;4954097;28;20700;-76
2023/03/07 04:08:52;;;;;;;10.43;4.85;;;;;;;13.89;nan;99335.22;4959005;28;20062;-75
2023/03/07 04:11:20;;;;;;;11.82;4.70;;;;;;;14.32;nan;99321.31;4955760;28;20631;-77
2023/03/07 04:13:47;;;;;;;11.30;4.78;;;;;;;13.99;nan;99322.16;4955571;28;20051;-81
2023/03/07 04:16:15;;;;;;;14.38;5.18;;;;;;;14.01;nan;99322.47;4955418;28;20063;-79
2023/03/07 04:18:42;;;;;;;14.48;5.60;;;;;;;13.69;nan;99320.06;4955287;28;20117;-77
2023/03/07 04:21:10;;;;;;;10.93;4.72;;;;;;;13.57;nan;99312.56;4952478;28;20081;-77
2023/03/07 04:23:36;;;;;;;12.40;4.68;;;;;;;13.94;nan;99317.94;4960403;28;20513;-79
2023/03/07 04:26:05;;;;;;;7.32;3.00;;;;;;;21.02;nan;99322.00;4954062;28;20055;-79
2023/03/07 04:28:43;;;;;;;9.65;4.13;;;;;;;23.61;nan;99313.94;4956910;28;20062;-78
2023/03/07 04:31:12;;;;;;;16.17;7.20;;;;;;;20.92;nan;99321.38;4942375;29;20050;-77
2023/03/07 04:33:39;;;;;;;17.90;8.75;;;;;;;13.59;nan;99288.66;4957570;28;20061;-78
2023/03/07 04:36:06;;;;;;;9.43;4.00;;;;;;;15.80;nan;99285.31;4954461;28;20054;-79
2023/03/07 04:38:33;;;;;;;11.48;4.13;;;;;;;15.04;nan;99279.81;4957401;28;20102;-78
2023/03/07 04:40:59;;;;;;;14.15;5.80;;;;;;;17.78;nan;99294.72;4957879;28;20051;-79
2023/03/07 04:43:26;;;;;;;20.52;7.30;;;;;;;16.54;nan;99265.13;4957000;28;20131;-78
2023/03/07 04:45:53;;;;;;;8.35;3.75;;;;;;;13.30;nan;99268.69;4950474;29;20055;-78
2023/03/07 04:48:20;;;;;;;14.15;6.13;;;;;;;12.68;nan;99272.34;4949822;28;20431;-78
2023/03/07 04:50:50;;;;;;;15.10;5.85;;;;;;;12.80;nan;99261.22;4953022;28;20047;-77
2023/03/07 04:53:18;;;;;;;14.57;5.60;;;;;;;13.19;nan;99259.91;4949931;28;20059;-78
2023/03/07 04:55:45;;;;;;;9.70;3.40;;;;;;;13.69;nan;99267.25;4956688;28;20062;-78
2023/03/07 04:58:12;;;;;;;4.82;2.70;;;;;;;13.39;nan;99260.41;4951327;28;20117;-79
2023/03/07 05:00:44;;;;;;;15.18;5.25;;;;;;;13.37;nan;99251.75;4952143;28;20059;-78
2023/03/07 05:03:12;;;;;;;14.23;5.88;;;;;;;13.72;nan;99250.47;4952621;28;20580;-76
2023/03/07 05:05:39;;;;;;;10.07;3.63;;;;;;;14.04;nan;99244.47;4955071;28;20062;-77
2023/03/07 05:08:06;;;;;;;12.45;5.20;;;;;;;14.01;nan;99245.38;4955763;28;20395;-78
2023/03/07 05:10:33;;;;;;;32.70;7.82;;;;;;;34.53;nan;99266.56;4953862;28;20133;-78
2023/03/07 05:13:01;;;;;;;11.07;5.45;;;;;;;15.56;nan;99250.16;4953846;28;20058;-79
2023/03/07 05:15:28;;;;;;;12.70;4.05;;;;;;;14.36;nan;99243.25;4951694;28;20055;-79
2023/03/07 05:17:54;;;;;;;18.42;6.93;;;;;;;14.29;nan;99235.19;4951860;28;20402;-76
2023/03/07 05:20:22;;;;;;;10.88;4.18;;;;;;;14.14;nan;99228.63;4949479;28;20506;-78
2023/03/07 05:22:49;;;;;;;12.13;5.57;;;;;;;15.37;nan;99232.66;4951839;28;20062;-77
2023/03/07 05:25:15;;;;;;;16.10;6.78;;;;;;;14.97;nan;99227.19;4950423;28;20505;-79
2023/03/07 05:27:42;;;;;;;18.10;7.43;;;;;;;15.03;nan;99232.94;4950596;28;20510;-77
2023/03/07 05:30:09;;;;;;;21.20;6.97;;;;;;;14.84;nan;99220.97;4940832;28;20059;-80
2023/03/07 05:32:36;;;;;;;19.88;7.07;;;;;;;14.78;nan;99227.63;4948068;28;20051;-82
2023/03/07 05:35:03;;;;;;;34.20;12.80;;;;;;;15.24;nan;99212.50;4947509;28;20063;-79
2023/03/07 05:37:30;;;;;;;29.65;11.15;;;;;;;15.51;nan;99212.53;4949855;29;20505;-76
2023/03/07 05:39:56;;;;;;;21.17;8.63;;;;;;;14.25;nan;99210.31;4949962;28;20498;-80
2023/03/07 05:42:23;;;;;;;16.08;6.82;;;;;;;14.61;nan;99210.41;4955079;28;20050;-79
2023/03/07 05:44:49;;;;;;;13.40;6.20;;;;;;;14.49;nan;99219.69;4953635;28;20047;-77
2023/03/07 05:47:16;;;;;;;20.55;7.25;;;;;;;15.04;nan;99218.53;4950618;28;20560;-79
2023/03/07 05:49:43;;;;;;;38.75;15.70;;;;;;;15.03;nan;99207.84;4950012;28;20576;-81
2023/03/07 05:52:09;;;;;;;27.90;12.38;;;;;;;15.70;nan;99219.63;4952572;28;20110;-77
2023/03/07 05:54:36;;;;;;;28.00;12.15;;;;;;;15.45;nan;99211.59;4949094;29;20055;-77
2023/03/07 05:57:02;;;;;;;23.77;11.30;;;;;;;15.58;nan;99217.78;4948923;28;20469;-77
2023/03/07 05:59:29;;;;;;;19.85;8.65;;;;;;;20.22;nan;99219.19;4950242;28;20051;-77
2023/03/07 06:01:55;;;;;;;33.53;16.88;;;;;;;16.35;nan;99210.56;4935136;28;20051;-77
2023/03/07 06:04:22;;;;;;;27.65;13.40;;;;;;;16.41;nan;99205.91;4951983;28;20050;-76
2023/03/07 06:06:48;;;;;;;30.25;13.45;;;;;;;15.89;nan;99204.38;4954649;28;20493;-81
2023/03/07 06:09:15;;;;;;;28.05;13.55;;;;;;;15.73;nan;99204.75;4963411;28;20098;-77
2023/03/07 06:11:42;;;;;;;26.08;12.65;;;;;;;14.92;nan;99219.44;4949600;28;20058;-79
2023/03/07 06:14:08;;;;;;;24.20;10.38;;;;;;;15.99;nan;99213.53;4957244;28;20043;-79
2023/03/07 06:16:35;;;;;;;26.88;14.32;;;;;;;15.10;nan;99197.19;4959269;28;20082;-76
2023/03/07 06:19:01;;;;;;;20.35;10.00;;;;;;;14.57;nan;99197.88;4958328;28;20074;-79
2023/03/07 06:21:29;;;;;;;29.00;17.48;;;;;;;13.98;nan;99187.13;4951362;28;20072;-80
2023/03/07 06:23:55;;;;;;;23.45;12.55;;;;;;;15.14;nan;99191.44;4960425;28;20383;-80
2023/03/07 06:26:22;;;;;;;4.03;3.15;;;;;;;16.19;nan;99188.63;4951050;28;20067;-82
2023/03/07 06:28:49;;;;;;;18.17;8.00;;;;;;;16.47;nan;99185.25;4948863;28;20051;-81
2023/03/07 06:31:17;;;;;;;18.27;8.88;;;;;;;30.66;nan;99217.47;4950441;28;20041;-79
2023/03/07 06:33:46;;;;;;;30.58;16.02;;;;;;;18.50;nan;99190.41;4953215;28;20043;-83
2023/03/07 06:36:15;;;;;;;36.33;16.92;;;;;;;19.77;nan;99195.53;4945909;28;20058;-82
2023/03/07 06:38:42;;;;;;;12.27;7.57;;;;;;;19.11;nan;99194.78;4956155;28;20059;-81
2023/03/07 06:41:08;;;;;;;35.70;20.23;;;;;;;17.85;nan;99196.44;4953390;28;20043;-82
2023/03/07 06:43:35;;;;;;;26.05;12.20;;;;;;;17.88;nan;99184.28;4957365;28;20047;-79
2023/03/07 06:46:02;;;;;;;33.22;15.15;;;;;;;17.13;nan;99183.91;4958251;28;20059;-80
2023/03/07 06:48:29;;;;;;;36.75;19.73;;;;;;;16.60;nan;99183.03;4958541;28;20055;-80
2023/03/07 06:50:55;;;;;;;31.90;14.90;;;;;;;17.29;nan;99182.69;4958500;28;20047;-80
2023/03/07 06:53:22;;;;;;;33.33;14.82;;;;;;;17.02;nan;99169.72;4960102;28;20047;-80
2023/03/07 06:55:50;;;;;;;28.35;12.98;;;;;;;16.85;nan;99170.59;4957943;28;20067;-82
2023/03/07 06:58:17;;;;;;;29.50;14.85;;;;;;;17.34;nan;99179.19;4966264;28;20039;-80
2023/03/07 07:00:44;;;;;;;30.45;15.95;;;;;;;19.87;nan;99185.69;4957451;28;20051;-82
2023/03/07 07:03:12;;;;;;;27.50;16.23;;;;;;;19.55;nan;99197.34;4959510;28;20055;-79
2023/03/07 07:05:39;;;;;;;31.02;16.58;;;;;;;20.26;nan;99192.41;4970030;28;20047;-82
2023/03/07 07:08:06;;;;;;;31.25;14.52;;;;;;;20.31;nan;99190.91;4958524;28;20402;-80
2023/03/07 07:10:33;;;;;;;27.00;12.90;;;;;;;18.47;nan;99190.59;4957295;28;20102;-81
2023/03/07 07:12:59;;;;;;;23.55;11.85;;;;;;;16.37;nan;99174.59;4955655;28;20059;-82
2023/03/07 07:15:26;;;;;;;25.85;11.48;;;;;;;16.52;nan;99173.47;4954400;28;20050;-78
2023/03/07 07:17:53;;;;;;;14.90;6.63;;;;;;;17.46;nan;99181.00;4957700;28;20050;-80
2023/03/07 07:20:19;;;;;;;25.13;13.30;;;;;;;17.66;nan;99184.66;4952835;28;20051;-80
2023/03/07 07:22:46;;;;;;;19.88;9.80;;;;;;;16.49;nan;99170.81;4952876;28;20051;-78
2023/03/07 07:25:13;;;;;;;24.73;11.27;;;;;;;17.09;nan;99169.34;4952460;28;20059;-79
2023/03/07 07:27:39;;;;;;;31.30;12.38;;;;;;;19.04;nan;99177.63;4951439;28;20055;-80
2023/03/07 07:30:07;;;;;;;10.43;4.97;;;;;;;18.88;nan;99172.56;4950393;28;20082;-80
2023/03/07 07:32:33;;;;;;;24.55;11.40;;;;;;;18.88;nan;99176.16;4956595;28;20047;-79
2023/03/07 07:35:00;;;;;;;12.57;6.70;;;;;;;17.28;nan;99178.34;4960144;28;20065;-79
2023/03/07 07:37:26;;;;;;;28.60;13.88;;;;;;;16.23;nan;99178.09;4959603;28;20493;-79
2023/03/07 07:39:53;;;;;;;16.48;5.97;;;;;;;17.31;nan;99180.16;4960502;28;20512;-79
2023/03/07 07:42:20;;;;;;;16.52;7.55;;;;;;;17.11;nan;99188.44;4957776;28;20121;-77
2023/03/07 07:44:47;;;;;;;13.23;5.30;;;;;;;14.50;nan;99175.91;4962589;28;20050;-78
2023/03/07 07:47:13;;;;;;;33.47;13.93;;;;;;;27.62;nan;99205.31;4958079;28;20043;-78
2023/03/07 07:49:40;;;;;;;23.40;9.13;;;;;;;14.08;nan;99183.16;4961054;28;20047;-77
2023/03/07 07:52:06;;;;;;;22.98;10.80;;;;;;;13.81;nan;99181.03;4952392;28;20074;-80
2023/03/07 07:54:33;;;;;;;34.95;16.30;;;;;;;13.00;nan;99188.81;4961464;28;20192;-79
2023/03/07 07:56:59;;;;;;;11.93;5.50;;;;;;;12.64;nan;99177.34;4959721;28;20058;-78
2023/03/07 07:59:26;;;;;;;19.70;9.73;;;;;;;12.95;nan;99189.34;4955860;28;20121;-78
2023/03/07 08:01:53;;;;;;;14.82;6.22;;;;;;;12.52;nan;99181.69;4952080;28;20130;-80
2023/03/07 08:04:20;;;;;;;24.75;12.13;;;;;;;33.77;nan;99220.91;4950553;29;20043;-78
2023/03/07 08:06:46;;;;;;;14.75;6.82;;;;;;;13.56;nan;99189.53;4950685;29;20047;-78
2023/03/07 08:09:13;;;;;;;10.98;4.25;;;;;;;14.13;nan;99208.38;4954915;28;20062;-79
2023/03/07 08:11:40;;;;;;;10.43;3.70;;;;;;;13.03;nan;99193.47;4956516;28;20042;-77
2023/03/07 08:14:07;;;;;;;11.77;3.75;;;;;;;13.29;nan;99208.78;4951904;28;20494;-78
2023/03/07 08:16:33;;;;;;;21.70;8.50;;;;;;;;;;4952720;28;20051;-79
2023/03/07 08:19:00;;;;;;;10.23;4.15;;;;;;;12.78;nan;99197.06;4955822;28;20435;-78
2023/03/07 08:21:27;;;;;;;18.58;6.35;;;;;;;20.62;nan;99212.59;4950688;28;20495;-78
2023/03/07 08:23:54;;;;;;;4.55;1.80;;;;;;;15.03;nan;99205.84;4949289;28;20105;-78
2023/03/07 08:26:21;;;;;;;12.48;3.63;;;;;;;14.07;nan;99201.84;4953716;28;20055;-77
2023/03/07 08:28:48;;;;;;;13.02;5.22;;;;;;;14.49;nan;99205.75;4952481;28;20067;-79
2023/03/07 08:31:17;;;;;;;4.60;2.30;;;;;;;13.22;nan;99209.03;4952498;28;20043;-77
2023/03/07 08:33:48;;;;;;;14.25;5.53;;;;;;;13.25;nan;99199.81;4950259;28;20051;-79
2023/03/07 08:36:15;;;;;;;13.77;4.53;;;;;;;11.54;nan;99204.13;4945231;28;20058;-77
2023/03/07 08:38:42;;;;;;;15.82;6.40;;;;;;;11.58;nan;99204.06;4950670;28;20050;-76
2023/03/07 08:41:09;;;;;;;15.55;5.60;;;;;;;11.51;nan;99204.25;4949355;28;20076;-77
2023/03/07 08:43:38;;;;;;;14.68;5.20;;;;;;;11.34;nan;99203.53;4950395;28;20057;-76
2023/03/07 08:46:05;;;;;;;10.90;4.20;;;;;;;11.53;nan;99210.91;4951206;28;20424;-77
2023/03/07 08:48:31;;;;;;;8.00;3.10;;;;;;;10.30;nan;99208.63;4956054;28;20051;-75
2023/03/07 08:51:07;;;;;;;12.45;4.13;;;;;;;10.26;nan;99210.69;4949856;28;20043;-78
2023/03/07 08:53:34;;;;;;;13.75;4.07;;;;;;;10.50;nan;99201.03;4960432;28;20042;-77
2023/03/07 08:56:04;;;;;;;14.13;4.60;;;;;;;10.63;nan;99208.63;4952550;28;20055;-76
2023/03/07 08:58:31;;;;;;;13.80;5.43;;;;;;;10.76;nan;99220.56;4948489;28;20054;-77
2023/03/07 09:00:58;;;;;;;14.63;5.65;;;;;;;11.03;nan;99210.72;4964316;28;20682;-77
2023/03/07 09:03:24;;;;;;;16.70;6.45;;;;;;;10.99;nan;99223.88;4953594;28;20587;-76
2023/03/07 09:05:51;;;;;;;15.63;5.80;;;;;;;10.81;nan;99226.34;4954643;28;20058;-79
2023/03/07 09:08:17;;;;;;;22.35;8.32;;;;;;;10.35;nan;99221.94;4961321;28;20051;-77
2023/03/07 09:10:44;;;;;;;11.63;4.18;;;;;;;9.82;nan;99235.38;4965583;28;20410;-78
2023/03/07 09:13:13;;;;;;;6.32;2.88;;;;;;;9.62;nan;99234.63;4958933;28;20129;-78
2023/03/07 09:15:40;;;;;;;9.23;3.40;;;;;;;9.51;nan;99236.81;4963036;28;20505;-78
2023/03/07 09:18:07;;;;;;;10.90;4.30;;;;;;;9.85;nan;99243.59;4966955;28;20129;-77
2023/03/07 09:20:34;;;;;;;12.40;3.67;;;;;;;10.39;nan;99250.28;4960629;28;20154;-76
2023/03/07 09:23:00;;;;;;;11.40;4.72;;;;;;;10.56;nan;99255.81;4952974;28;20121;-75
2023/03/07 09:25:27;;;;;;;7.00;2.70;;;;;;;10.57;nan;99253.38;4949001;28;20715;-79
2023/03/07 09:27:54;;;;;;;9.57;3.75;;;;;;;10.11;nan;99255.69;4950160;28;20078;-79
2023/03/07 09:30:21;;;;;;;10.85;3.92;;;;;;;10.34;nan;99261.88;4934314;29;20059;-76
2023/03/07 09:32:48;;;;;;;7.20;3.15;;;;;;;9.98;nan;99261.06;4950833;28;20055;-77
2023/03/07 09:35:15;;;;;;;4.35;2.28;;;;;;;9.80;nan;99257.91;4953069;28;20058;-75
2023/03/07 09:37:42;;;;;;;9.65;3.65;;;;;;;9.94;nan;99252.09;4950566;28;20051;-78
2023/03/07 09:40:16;;;;;;;10.52;3.90;;;;;;;10.14;nan;99255.63;4948111;28;20928;-77
2023/03/07 09:42:58;;;;;;;10.17;3.80;;;;;;;10.30;nan;99261.16;4950253;28;20059;-77
2023/03/07 09:45:36;;;;;;;12.93;4.43;;;;;;;10.24;nan;99253.81;4947552;28;20059;-74
2023/03/07 09:48:08;;;;;;;8.63;3.15;;;;;;;10.12;nan;99257.22;4948676;28;20065;-77
2023/03/07 09:50:48;;;;;;;9.90;3.22;;;;;;;9.95;nan;99264.69;4947223;28;20509;-74
2023/03/07 09:53:22;;;;;;;7.95;2.85;;;;;;;9.87;nan;99263.28;4954129;28;20561;-79
2023/03/07 09:55:51;;;;;;;7.45;3.03;;;;;;;9.37;nan;99262.72;4964941;28;20178;-80
2023/03/07 09:58:22;;;;;;;8.90;3.33;;;;;;;9.56;nan;99266.69;4952440;28;20051;-81
2023/03/07 10:00:55;;;;;;;9.82;3.42;;;;;;;9.80;nan;99266.19;4952566;28;20051;-80
2023/03/07 10:03:24;;;;;;;6.50;2.60;;;;;;;9.97;nan;99270.56;4951565;28;20047;-80
2023/03/07 10:05:55;;;;;;;10.02;3.65;;;;;;;10.25;nan;99266.41;4951662;28;20062;-80
2023/03/07 10:08:30;;;;;;;8.98;3.05;;;;;;;10.52;nan;99263.44;4958145;28;20110;-80
2023/03/07 10:11:06;;;;;;;8.75;3.15;;;;;;;9.59;nan;99263.84;4954355;28;20054;-81
2023/03/07 10:14:08;;;;;;;8.82;3.10;;;;;;;9.70;nan;99266.41;4963503;28;20065;-80
2023/03/07 10:17:03;;;;;;;6.35;2.20;;;;;;;9.57;nan;99271.00;4890750;29;20043;-79
2023/03/07 10:19:40;;;;;;;11.10;3.95;;;;;;;9.51;nan;99267.97;4940498;28;20054;-78
2023/03/07 10:22:41;;;;;;;8.32;2.63;;;;;;;9.98;nan;99277.66;4955417;28;20059;-82
2023/03/07 10:25:14;;;;;;;10.35;2.35;;;;;;;9.37;nan;99282.06;4960055;28;20058;-80
2023/03/07 10:27:45;;;;;;;2.50;1.00;;;;;;;9.82;nan;99277.59;4958438;28;20059;-78
2023/03/07 10:30:17;;;;;;;8.98;3.35;;;;;;;9.85;nan;99284.22;4956828;28;20059;-79
2023/03/07 10:32:57;;;;;;;8.00;2.92;;;;;;;12.27;nan;99286.31;4942991;29;20059;-80
2023/03/07 10:35:39;;;;;;;9.82;3.47;;;;;;;10.44;nan;99282.94;4957725;28;20149;-81
2023/03/07 10:38:48;;;;;;;6.78;2.42;;;;;;;9.95;nan;99289.53;4972860;28;20055;-79
2023/03/07 10:41:20;;;;;;;11.02;3.00;;;;;;;10.09;nan;99292.03;4925085;29;20058;-79
2023/03/07 10:43:49;;;;;;;10.80;3.30;;;;;;;10.17;nan;99292.66;4974089;29;20054;-84
2023/03/07 10:46:21;;;;;;;18.23;4.13;;;;;;;9.72;nan;99289.63;4969985;28;20606;-81
2023/03/07 10:48:54;;;;;;;2.90;1.42;;;;;;;23.75;nan;99322.09;4953486;29;20089;-78
2023/03/07 10:51:54;;;;;;;11.85;4.60;;;;;;;13.43;nan;99304.75;4954578;28;20066;-77
2023/03/07 10:54:27;;;;;;;5.55;3.05;;;;;;;12.48;nan;99305.84;4947035;28;20477;-79
2023/03/07 10:57:16;;;;;;;5.03;2.38;;;;;;;12.91;nan;99308.84;4959136;28;20054;-78
2023/03/07 10:59:47;;;;;;;17.38;5.70;;;;;;;9.52;nan;99302.66;4953028;28;20721;-80
2023/03/07 11:02:36;;;;;;;6.03;2.42;;;;;;;7.66;nan;99307.50;4949766;28;20055;-78
2023/03/07 11:05:24;;;;;;;10.38;3.38;;;;;;;7.11;nan;99306.94;4955605;28;20050;-79
2023/03/07 11:07:50;;;;;;;17.98;5.75;;;;;;;7.03;nan;99308.19;4957374;28;20154;-78
2023/03/07 11:10:37;;;;;;;7.00;3.28;;;;;;;6.90;nan;99312.63;4960275;28;20105;-79
2023/03/07 11:13:17;;;;;;;13.77;4.78;;;;;;;6.82;nan;99306.41;4963760;28;20074;-79
2023/03/07 11:15:44;;;;;;;16.05;5.70;;;;;;;6.90;nan;99313.44;4954500;28;20117;-79
2023/03/07 11:18:27;;;;;;;12.68;5.15;;;;;;;6.36;nan;99316.19;4952079;29;20067;-79
2023/03/07 11:20:53;;;;;;;11.70;3.83;;;;;;;5.81;nan;99313.38;4953830;28;20050;-83
2023/03/07 11:23:29;;;;;;;16.23;5.03;;;;;;;6.38;nan;99311.09;4953528;28;20050;-77
2023/03/07 11:26:14;;;;;;;13.85;5.45;;;;;;;6.64;nan;99322.28;4956022;28;20120;-78
2023/03/07 11:28:40;;;;;;;11.70;4.18;;;;;;;6.46;nan;99323.59;4952705;28;20126;-78
2023/03/07 11:31:23;;;;;;;13.10;4.63;;;;;;;5.05;nan;99329.63;4952141;28;20221;-79
2023/03/07 11:33:59;;;;;;;12.43;4.32;;;;;;;40.25;nan;99351.13;4950843;28;20047;-78
2023/03/07 11:36:34;;;;;;;13.65;4.63;;;;;;;47.60;nan;99345.91;4956905;28;20078;-80
2023/03/07 11:39:19;;;;;;;;;;;;;;;17.67;nan;99314.88;4957604;28;20059;-77
2023/03/07 11:41:52;;;;;;;15.85;5.80;;;;;;;14.88;nan;99313.50;4939464;28;19941;-80
2023/03/07 11:44:38;;;;;;;12.73;5.40;;;;;;;14.18;nan;99313.47;4944728;28;20050;-80
2023/03/07 11:47:32;;;;;;;6.63;2.45;;;;;;;14.06;nan;99319.88;4931274;28;20518;-81
2023/03/07 11:50:13;;;;;;;3.25;2.00;;;;;;;14.65;nan;99314.03;4947431;28;20051;-80